Time;durP1;ratioP1;P1;durP2;ratioP2;P2;SDS_P1;SDS_P2;PMS_P1;PMS_P2;Temp;Humidity;BMP_temperature;BMP_pressure;BME280_temperature;BME280_humidity;BME280_pressure;Samples;Min_cycle;Max_cycle;Signal;HPM_P1;HPM_P2
2022/03/23 00:02:09;;;;;;;9.83;7.37;;;;;;;;;;5069005;28;20199;-55
2022/03/23 00:04:35;;;;;;;9.13;7.37;;;;;;;;;;5073587;28;20172;-53
2022/03/23 00:07:02;;;;;;;8.00;7.07;;;;;;;;;;5092322;28;20281;-54
2022/03/23 00:09:28;;;;;;;8.20;7.03;;;;;;;;;;5113209;28;20170;-54
2022/03/23 00:11:54;;;;;;;7.97;6.67;;;;;;;;;;5092858;28;20643;-53
2022/03/23 00:14:20;;;;;;;8.50;6.70;;;;;;;;;;5092510;28;20225;-53
2022/03/23 00:16:47;;;;;;;10.83;6.93;;;;;;;;;;5072275;28;20626;-53
2022/03/23 00:19:13;;;;;;;8.33;6.70;;;;;;;;;;5096044;28;20627;-52
2022/03/23 00:21:39;;;;;;;7.70;6.90;;;;;;;;;;5090568;28;20686;-53
2022/03/23 00:24:05;;;;;;;7.93;6.80;;;;;;;;;;5090684;28;20181;-52
2022/03/23 00:26:31;;;;;;;8.30;7.27;;;;;;;;;;5090626;28;20702;-53
2022/03/23 00:28:58;;;;;;;7.43;6.60;;;;;;;;;;5091615;28;20224;-53
2022/03/23 00:31:24;;;;;;;8.40;7.13;;;;;;;;;;5071120;28;20643;-53
2022/03/23 00:33:51;;;;;;;7.07;6.17;;;;;;;;;;5092585;28;20188;-53
2022/03/23 00:36:17;;;;;;;9.00;6.80;;;;;;;;;;5089139;28;20183;-53
2022/03/23 00:38:43;;;;;;;7.17;6.47;;;;;;;;;;5069804;28;20179;-52
2022/03/23 00:41:10;;;;;;;7.60;6.80;;;;;;;;;;5087308;28;20179;-54
2022/03/23 00:43:36;;;;;;;6.90;6.07;;;;;;;;;;5073687;28;20183;-54
2022/03/23 00:46:02;;;;;;;6.80;6.20;;;;;;;;;;5087509;28;20282;-53
2022/03/23 00:48:28;;;;;;;6.80;6.10;;;;;;;;;;5091266;28;20541;-53
2022/03/23 00:50:54;;;;;;;7.90;6.50;;;;;;;;;;5093428;28;20596;-53
2022/03/23 00:53:20;;;;;;;7.23;6.43;;;;;;;;;;5100073;28;20701;-54
2022/03/23 00:55:46;;;;;;;6.07;5.43;;;;;;;;;;5090692;28;20733;-53
2022/03/23 00:58:12;;;;;;;7.07;6.37;;;;;;;;;;5090619;28;20279;-54
2022/03/23 01:00:40;;;;;;;8.07;6.57;;;;;;;;;;5089461;28;20176;-53
2022/03/23 01:03:07;;;;;;;6.83;6.23;;;;;;;;;;5089867;28;20273;-53
2022/03/23 01:05:33;;;;;;;7.53;5.97;;;;;;;;;;5086375;28;20634;-54
2022/03/23 01:07:59;;;;;;;6.70;5.77;;;;;;;;;;5092857;28;20221;-53
2022/03/23 01:10:25;;;;;;;7.30;6.33;;;;;;;;;;5089427;28;20540;-55
2022/03/23 01:12:51;;;;;;;6.70;6.10;;;;;;;;;;5091039;28;20203;-53
2022/03/23 01:15:19;;;;;;;6.70;6.00;;;;;;;;;;5085911;28;20207;-53
2022/03/23 01:17:45;;;;;;;6.93;6.13;;;;;;;;;;5071761;28;20773;-55
2022/03/23 01:20:14;;;;;;;7.40;6.57;;;;;;;;;;5070775;28;20176;-54
2022/03/23 01:22:41;;;;;;;8.13;6.23;;;;;;;;;;5087679;28;20191;-53
2022/03/23 01:25:08;;;;;;;7.27;6.33;;;;;;;;;;5070249;28;20234;-53
2022/03/23 01:27:35;;;;;;;7.50;6.50;;;;;;;;;;5066335;28;20543;-53
2022/03/23 01:30:02;;;;;;;8.43;6.93;;;;;;;;;;5055729;28;20194;-56
2022/03/23 01:32:29;;;;;;;7.23;6.20;;;;;;;;;;5071542;28;20238;-54
2022/03/23 01:34:55;;;;;;;8.27;6.43;;;;;;;;;;5089772;28;20745;-54
2022/03/23 01:37:21;;;;;;;7.97;6.50;;;;;;;;;;5087034;28;20187;-53
2022/03/23 01:39:47;;;;;;;7.73;6.50;;;;;;;;;;5090167;28;20175;-54
2022/03/23 01:42:13;;;;;;;6.70;6.00;;;;;;;;;;5088551;28;20549;-52
2022/03/23 01:44:39;;;;;;;6.90;6.20;;;;;;;;;;5089421;28;20176;-53
2022/03/23 01:47:08;;;;;;;7.33;6.60;;;;;;;;;;5087042;28;20283;-55
2022/03/23 01:49:36;;;;;;;8.77;6.83;;;;;;;;;;5088428;28;20187;-53
2022/03/23 01:52:02;;;;;;;6.87;6.17;;;;;;;;;;5079471;28;20191;-53
2022/03/23 01:54:28;;;;;;;6.80;6.10;;;;;;;;;;5088522;28;20539;-53
2022/03/23 01:56:56;;;;;;;6.87;6.07;;;;;;;;;;5073744;28;20204;-53
2022/03/23 01:59:22;;;;;;;6.73;6.03;;;;;;;;;;5090182;28;20306;-54
2022/03/23 02:01:48;;;;;;;10.10;6.90;;;;;;;;;;5087712;28;20659;-53
2022/03/23 02:04:14;;;;;;;7.30;6.03;;;;;;;;;;5082744;28;20624;-53
2022/03/23 02:06:40;;;;;;;7.93;6.60;;;;;;;;;;5085922;28;20209;-54
2022/03/23 02:09:06;;;;;;;6.70;6.00;;;;;;;;;;5092910;28;20200;-54
2022/03/23 02:11:33;;;;;;;7.43;6.67;;;;;;;;;;5093133;28;20172;-53
2022/03/23 02:13:59;;;;;;;7.93;7.13;;;;;;;;;;5087829;28;20626;-53
2022/03/23 02:16:25;;;;;;;7.97;7.07;;;;;;;;;;5089998;28;20210;-53
2022/03/23 02:18:51;;;;;;;7.67;6.80;;;;;;;;;;5095577;28;20184;-55
2022/03/23 02:21:18;;;;;;;7.20;6.50;;;;;;;;;;5087495;28;20176;-52
2022/03/23 02:23:44;;;;;;;7.17;6.47;;;;;;;;;;5088013;28;20190;-53
2022/03/23 02:26:10;;;;;;;8.03;6.87;;;;;;;;;;5094588;28;20175;-53
2022/03/23 02:28:37;;;;;;;7.30;6.30;;;;;;;;;;5069970;28;20191;-53
2022/03/23 02:31:04;;;;;;;8.17;6.23;;;;;;;;;;5088157;28;20179;-54
2022/03/23 02:33:30;;;;;;;7.50;6.80;;;;;;;;;;5089664;28;20211;-53
2022/03/23 02:35:56;;;;;;;7.60;6.63;;;;;;;;;;5087565;28;20267;-51
2022/03/23 02:38:23;;;;;;;7.83;7.03;;;;;;;;;;5084879;28;20175;-53
2022/03/23 02:40:49;;;;;;;8.13;6.50;;;;;;;;;;5087035;28;20256;-53
2022/03/23 02:43:15;;;;;;;8.20;5.97;;;;;;;;;;5087755;28;20712;-53
2022/03/23 02:45:41;;;;;;;7.30;6.60;;;;;;;;;;5086698;28;20311;-52
2022/03/23 02:48:09;;;;;;;6.83;6.13;;;;;;;;;;5068537;28;20215;-52
2022/03/23 02:50:35;;;;;;;7.73;6.93;;;;;;;;;;5088717;28;20639;-53
2022/03/23 03:04:08;;;;;;;9.73;6.50;;;;;;;;;;5088055;28;20190;-54
2022/03/23 03:06:34;;;;;;;7.23;6.50;;;;;;;;;;5085279;28;20192;-53
2022/03/23 03:09:00;;;;;;;7.30;6.60;;;;;;;;;;5086501;28;20647;-54
2022/03/23 03:11:26;;;;;;;8.90;6.97;;;;;;;;;;5084312;28;20188;-54
2022/03/23 03:13:52;;;;;;;8.67;5.70;;;;;;;;;;5069493;28;20235;-55
2022/03/23 03:16:19;;;;;;;7.60;6.67;;;;;;;;;;5085883;28;20182;-54
2022/03/23 03:18:46;;;;;;;8.30;7.00;;;;;;;;;;5085249;28;20180;-53
2022/03/23 03:21:13;;;;;;;7.23;6.50;;;;;;;;;;5087953;28;20255;-55
2022/03/23 03:23:43;;;;;;;7.13;6.50;;;;;;;;;;5085535;28;20693;-54
2022/03/23 03:26:10;;;;;;;8.47;6.80;;;;;;;;;;5087666;28;20618;-54
2022/03/23 03:28:38;;;;;;;7.43;6.60;;;;;;;;;;5068859;28;20187;-53
2022/03/23 03:31:05;;;;;;;7.97;6.63;;;;;;;;;;5087881;28;20643;-53
2022/03/23 03:33:31;;;;;;;7.57;6.77;;;;;;;;;;5094765;28;20290;-53
2022/03/23 03:35:57;;;;;;;7.47;6.20;;;;;;;;;;5086263;28;20262;-54
2022/03/23 03:38:23;;;;;;;7.30;6.57;;;;;;;;;;5086753;28;20732;-56
2022/03/23 03:40:49;;;;;;;6.90;6.23;;;;;;;;;;5086534;28;20188;-53
2022/03/23 03:43:16;;;;;;;7.00;6.30;;;;;;;;;;5088300;28;20206;-53
2022/03/23 03:45:42;;;;;;;7.37;6.63;;;;;;;;;;5083134;28;20569;-54
2022/03/23 03:48:08;;;;;;;6.60;6.00;;;;;;;;;;5087303;28;20187;-54
2022/03/23 03:50:34;;;;;;;7.73;6.57;;;;;;;;;;5087431;28;20187;-54
2022/03/23 03:53:01;;;;;;;8.20;6.70;;;;;;;;;;5087144;28;20202;-54
2022/03/23 03:55:27;;;;;;;7.70;6.90;;;;;;;;;;5087085;28;20594;-53
2022/03/23 03:57:54;;;;;;;6.63;5.93;;;;;;;;;;5087293;28;20206;-53
2022/03/23 04:00:20;;;;;;;7.33;6.53;;;;;;;;;;5085903;28;20200;-53
2022/03/23 04:02:46;;;;;;;8.33;7.43;;;;;;;;;;5088368;28;20187;-55
2022/03/23 04:05:12;;;;;;;7.30;6.60;;;;;;;;;;5100021;28;20184;-53
2022/03/23 04:07:38;;;;;;;7.73;6.93;;;;;;;;;;5083699;28;20176;-53
2022/03/23 04:10:05;;;;;;;7.70;6.90;;;;;;;;;;5086641;28;20598;-55
2022/03/23 04:12:31;;;;;;;7.80;6.97;;;;;;;;;;5086520;28;20564;-53
2022/03/23 04:14:58;;;;;;;7.37;5.93;;;;;;;;;;5087200;28;20221;-52
2022/03/23 04:17:24;;;;;;;8.10;7.30;;;;;;;;;;5095188;28;20531;-54
2022/03/23 04:19:50;;;;;;;9.20;7.13;;;;;;;;;;5086828;28;20549;-53
2022/03/23 04:22:16;;;;;;;7.33;6.63;;;;;;;;;;5086096;28;20529;-52
2022/03/23 04:24:42;;;;;;;10.27;7.30;;;;;;;;;;5087490;28;20176;-53
2022/03/23 04:27:08;;;;;;;8.23;7.37;;;;;;;;;;5094945;28;20187;-53
2022/03/23 04:29:34;;;;;;;8.10;7.30;;;;;;;;;;5108889;28;20251;-53
2022/03/23 04:32:00;;;;;;;8.47;7.70;;;;;;;;;;5082539;28;20275;-53
2022/03/23 04:34:26;;;;;;;6.97;6.27;;;;;;;;;;5100292;28;20630;-53
2022/03/23 04:36:53;;;;;;;9.20;7.00;;;;;;;;;;5081638;28;20180;-52
2022/03/23 04:39:19;;;;;;;6.97;6.23;;;;;;;;;;5063269;28;20537;-52
2022/03/23 04:41:45;;;;;;;9.27;7.17;;;;;;;;;;5085051;28;20275;-52
2022/03/23 04:44:11;;;;;;;8.73;6.80;;;;;;;;;;5088304;28;20250;-53
2022/03/23 04:46:38;;;;;;;8.17;6.80;;;;;;;;;;5081998;28;20204;-54
2022/03/23 04:49:04;;;;;;;8.07;7.27;;;;;;;;;;5071171;28;20635;-52
2022/03/23 04:51:31;;;;;;;8.53;7.07;;;;;;;;;;5088264;28;20706;-53
2022/03/23 04:53:57;;;;;;;7.97;7.17;;;;;;;;;;5072890;28;20198;-53
2022/03/23 04:56:24;;;;;;;7.80;7.00;;;;;;;;;;5088177;28;20324;-54
2022/03/23 04:58:50;;;;;;;7.20;6.50;;;;;;;;;;5099489;28;20263;-53
2022/03/23 05:01:16;;;;;;;8.63;7.87;;;;;;;;;;5071069;28;20617;-53
2022/03/23 05:03:43;;;;;;;7.30;6.60;;;;;;;;;;5072463;28;20337;-53
2022/03/23 05:06:09;;;;;;;8.20;7.20;;;;;;;;;;5069766;28;20638;-53
2022/03/23 05:08:36;;;;;;;8.20;6.80;;;;;;;;;;5082402;28;20758;-53
2022/03/23 05:11:02;;;;;;;10.23;7.47;;;;;;;;;;5071004;28;20179;-53
2022/03/23 05:13:28;;;;;;;7.63;6.77;;;;;;;;;;5073687;28;20318;-53
2022/03/23 05:15:55;;;;;;;7.53;6.73;;;;;;;;;;5083511;28;20211;-56
2022/03/23 05:18:21;;;;;;;7.70;6.85;;;;;;;;;;5064524;28;20985;-54
2022/03/23 05:20:48;;;;;;;8.80;6.30;;;;;;;;;;5080628;28;20248;-52
2022/03/23 05:23:14;;;;;;;8.47;7.73;;;;;;;;;;5086374;28;20171;-54
2022/03/23 05:25:40;;;;;;;8.00;6.80;;;;;;;;;;5096817;28;20185;-53
2022/03/23 05:28:08;;;;;;;7.60;6.80;;;;;;;;;;5086501;28;20732;-51
2022/03/23 05:30:34;;;;;;;7.53;6.73;;;;;;;;;;5091765;28;20180;-53
2022/03/23 05:33:01;;;;;;;7.50;6.70;;;;;;;;;;5087517;28;20199;-52
2022/03/23 05:35:27;;;;;;;8.07;6.13;;;;;;;;;;5090906;28;20164;-53
2022/03/23 05:37:54;;;;;;;7.00;6.30;;;;;;;;;;5064714;28;20590;-54
2022/03/23 05:40:23;;;;;;;7.77;6.43;;;;;;;;;;5085549;28;20181;-55
2022/03/23 05:42:50;;;;;;;7.80;6.07;;;;;;;;;;5083435;28;20180;-54
2022/03/23 05:45:16;;;;;;;7.73;6.93;;;;;;;;;;5073665;28;20610;-53
2022/03/23 05:47:42;;;;;;;7.97;6.90;;;;;;;;;;5088281;28;20190;-53
2022/03/23 05:50:09;;;;;;;10.20;6.90;;;;;;;;;;5097317;28;20191;-52
2022/03/23 05:52:36;;;;;;;8.33;7.63;;;;;;;;;;5082413;28;20227;-54
2022/03/23 05:55:02;;;;;;;9.30;7.07;;;;;;;;;;5087522;28;20176;-52
2022/03/23 05:57:28;;;;;;;8.60;7.03;;;;;;;;;;5074004;28;20188;-53
2022/03/23 05:59:54;;;;;;;9.63;6.20;;;;;;;;;;5084031;28;20187;-53
2022/03/23 06:02:20;;;;;;;8.70;7.80;;;;;;;;;;5077061;28;20326;-55
2022/03/23 06:04:46;;;;;;;8.47;6.80;;;;;;;;;;5087929;28;20184;-53
2022/03/23 06:07:12;;;;;;;7.63;6.80;;;;;;;;;;5078206;28;20180;-54
2022/03/23 06:09:39;;;;;;;7.37;6.67;;;;;;;;;;5084939;28;20623;-53
2022/03/23 06:12:05;;;;;;;8.37;7.57;;;;;;;;;;5083326;28;20203;-53
2022/03/23 06:14:34;;;;;;;9.32;7.22;;;;;;;;;;5103443;28;20809;-52
2022/03/23 06:17:00;;;;;;;7.13;6.43;;;;;;;;;;5084100;28;20266;-55
2022/03/23 06:19:26;;;;;;;8.37;7.17;;;;;;;;;;5090587;28;20203;-53
2022/03/23 06:21:52;;;;;;;8.60;7.77;;;;;;;;;;5085957;28;20591;-52
2022/03/23 06:24:18;;;;;;;10.63;7.53;;;;;;;;;;5090472;28;20251;-52
2022/03/23 06:26:44;;;;;;;8.43;7.37;;;;;;;;;;5089986;28;20184;-53
2022/03/23 06:29:11;;;;;;;8.13;7.10;;;;;;;;;;5089676;28;20544;-54
2022/03/23 06:31:37;;;;;;;9.03;7.57;;;;;;;;;;5084544;28;20218;-52
2022/03/23 06:34:04;;;;;;;8.47;6.60;;;;;;;;;;5081221;28;20196;-52
2022/03/23 06:36:30;;;;;;;8.60;6.53;;;;;;;;;;5088472;28;20175;-54
2022/03/23 06:38:56;;;;;;;8.57;7.20;;;;;;;;;;5087829;28;20666;-52
2022/03/23 06:41:22;;;;;;;8.17;7.37;;;;;;;;;;5077575;28;20207;-53
2022/03/23 06:43:48;;;;;;;9.50;7.60;;;;;;;;;;5080785;28;20233;-53
2022/03/23 06:46:14;;;;;;;12.20;9.47;;;;;;;;;;5088836;28;20196;-53
2022/03/23 06:48:40;;;;;;;12.03;9.67;;;;;;;;;;5089984;28;20298;-52
2022/03/23 06:51:06;;;;;;;13.27;9.37;;;;;;;;;;5097088;28;20244;-53
2022/03/23 06:53:32;;;;;;;9.80;8.83;;;;;;;;;;5108944;28;20200;-53
2022/03/23 06:55:58;;;;;;;10.50;8.30;;;;;;;;;;5097226;28;20180;-53
2022/03/23 06:58:24;;;;;;;12.00;8.57;;;;;;;;;;5088838;28;20195;-52
2022/03/23 07:00:50;;;;;;;9.23;7.93;;;;;;;;;;5089855;28;20689;-52
2022/03/23 07:03:16;;;;;;;9.80;7.90;;;;;;;;;;5089428;28;20219;-53
2022/03/23 07:05:42;;;;;;;10.60;7.67;;;;;;;;;;5084095;28;20634;-52
2022/03/23 07:10:53;;;;;;;12.93;8.17;;;;;;;;;;5088967;28;20244;-53
2022/03/23 07:13:19;;;;;;;9.07;7.77;;;;;;;;;;5088193;28;20550;-52
2022/03/23 07:15:47;;;;;;;8.73;7.83;;;;;;;;;;5087792;28;20627;-53
2022/03/23 07:18:13;;;;;;;10.00;8.30;;;;;;;;;;5084723;28;20179;-53
2022/03/23 07:20:39;;;;;;;9.47;8.53;;;;;;;;;;5088405;28;20633;-53
2022/03/23 07:23:05;;;;;;;10.60;8.27;;;;;;;;;;5086913;28;20171;-53
2022/03/23 07:25:31;;;;;;;12.23;8.57;;;;;;;;;;5089503;28;20202;-54
2022/03/23 07:27:57;;;;;;;9.47;8.00;;;;;;;;;;5088728;28;20180;-53
2022/03/23 07:30:25;;;;;;;10.77;8.77;;;;;;;;;;5083583;28;20249;-52
2022/03/23 07:32:52;;;;;;;12.80;9.57;;;;;;;;;;5088499;28;20269;-53
2022/03/23 07:35:18;;;;;;;10.57;8.90;;;;;;;;;;5081670;28;20183;-52
2022/03/23 07:37:44;;;;;;;10.87;8.43;;;;;;;;;;5078206;28;20192;-53
2022/03/23 07:40:11;;;;;;;9.40;8.43;;;;;;;;;;5078816;28;20519;-54
2022/03/23 07:42:37;;;;;;;13.70;8.23;;;;;;;;;;5090965;28;20673;-54
2022/03/23 07:45:03;;;;;;;12.10;9.47;;;;;;;;;;5066632;28;20175;-53
2022/03/23 07:47:29;;;;;;;10.90;8.83;;;;;;;;;;5084922;28;20180;-54
2022/03/23 07:49:55;;;;;;;11.67;9.40;;;;;;;;;;5086974;28;20187;-54
2022/03/23 07:52:21;;;;;;;11.87;9.00;;;;;;;;;;5085246;28;20183;-53
2022/03/23 07:54:47;;;;;;;9.63;8.60;;;;;;;;;;5086966;28;20610;-54
2022/03/23 07:57:14;;;;;;;10.23;8.20;;;;;;;;;;5080160;28;20554;-53
2022/03/23 07:59:41;;;;;;;10.97;8.97;;;;;;;;;;5058088;28;20180;-53
2022/03/23 08:02:07;;;;;;;10.03;8.50;;;;;;;;;;5088013;28;20579;-55
2022/03/23 08:04:34;;;;;;;14.33;9.40;;;;;;;;;;5089179;28;20695;-53
2022/03/23 08:07:01;;;;;;;9.97;8.90;;;;;;;;;;5071596;28;20223;-54
2022/03/23 08:09:27;;;;;;;11.43;9.13;;;;;;;;;;5088733;28;20245;-54
2022/03/23 08:11:53;;;;;;;11.87;9.37;;;;;;;;;;5079699;28;20190;-53
2022/03/23 08:14:19;;;;;;;11.50;9.70;;;;;;;;;;5087457;28;20211;-53
2022/03/23 08:16:46;;;;;;;11.23;9.23;;;;;;;;;;5102445;28;20233;-53
2022/03/23 08:19:12;;;;;;;12.43;9.63;;;;;;;;;;5105831;28;20187;-54
2022/03/23 08:21:38;;;;;;;11.40;9.50;;;;;;;;;;5082733;28;20863;-54
2022/03/23 08:24:04;;;;;;;12.73;9.90;;;;;;;;;;5089762;28;20175;-53
2022/03/23 08:26:30;;;;;;;13.87;9.80;;;;;;;;;;5091914;28;20211;-54
2022/03/23 08:28:56;;;;;;;13.43;9.67;;;;;;;;;;5092480;28;20554;-54
2022/03/23 08:31:23;;;;;;;11.83;10.17;;;;;;;;;;5083748;28;20184;-53
2022/03/23 08:33:49;;;;;;;12.10;9.47;;;;;;;;;;5087404;28;20563;-54
2022/03/23 08:36:16;;;;;;;11.93;9.63;;;;;;;;;;5083378;28;20172;-54
2022/03/23 08:38:42;;;;;;;15.07;10.57;;;;;;;;;;5056355;28;20207;-53
2022/03/23 08:41:08;;;;;;;12.37;10.70;;;;;;;;;;5073837;28;20188;-54
2022/03/23 08:43:34;;;;;;;11.97;10.13;;;;;;;;;;5092178;28;20172;-53
2022/03/23 08:46:00;;;;;;;12.50;10.00;;;;;;;;;;5091645;28;20194;-53
2022/03/23 08:48:27;;;;;;;10.80;9.63;;;;;;;;;;5086979;28;20216;-53
2022/03/23 08:50:53;;;;;;;11.70;10.13;;;;;;;;;;5088332;28;20736;-54
2022/03/23 08:53:19;;;;;;;11.67;9.63;;;;;;;;;;5072197;28;20227;-53
2022/03/23 08:55:46;;;;;;;11.67;9.73;;;;;;;;;;5091784;28;20190;-54
2022/03/23 08:58:12;;;;;;;13.30;10.10;;;;;;;;;;5091110;28;20269;-53
2022/03/23 09:00:41;;;;;;;11.20;9.57;;;;;;;;;;5091175;28;20180;-54
2022/03/23 09:03:07;;;;;;;11.03;9.83;;;;;;;;;;5091378;28;20270;-53
2022/03/23 09:05:33;;;;;;;12.07;9.10;;;;;;;;;;5066830;28;20276;-55
2022/03/23 09:08:01;;;;;;;11.03;9.03;;;;;;;;;;5082865;28;20246;-55
2022/03/23 09:10:27;;;;;;;13.80;10.50;;;;;;;;;;5089672;28;20211;-55
2022/03/23 09:12:54;;;;;;;12.73;10.37;;;;;;;;;;5090437;28;20206;-56
2022/03/23 09:15:20;;;;;;;12.97;11.13;;;;;;;;;;5088167;28;20215;-54
2022/03/23 09:17:46;;;;;;;19.03;12.53;;;;;;;;;;5086779;28;20211;-55
2022/03/23 09:20:13;;;;;;;14.60;12.77;;;;;;;;;;5090357;28;20635;-54
2022/03/23 09:22:40;;;;;;;12.03;10.60;;;;;;;;;;5089189;28;20184;-53
2022/03/23 09:25:08;;;;;;;16.60;11.40;;;;;;;;;;5091094;28;20212;-56
2022/03/23 09:27:36;;;;;;;14.07;11.30;;;;;;;;;;5091381;28;20179;-54
2022/03/23 09:30:03;;;;;;;16.23;10.77;;;;;;;;;;5088469;28;20212;-53
2022/03/23 09:32:29;;;;;;;14.97;11.13;;;;;;;;;;5108208;28;20206;-54
2022/03/23 09:34:55;;;;;;;13.13;11.73;;;;;;;;;;5095331;28;20210;-54
2022/03/23 09:40:07;;;;;;;17.47;11.47;;;;;;;;;;5088220;28;20186;-54
2022/03/23 09:42:33;;;;;;;21.67;13.07;;;;;;;;;;5089809;28;20192;-54
2022/03/23 09:45:00;;;;;;;16.50;11.97;;;;;;;;;;5089844;28;20184;-54
2022/03/23 09:47:26;;;;;;;17.03;11.90;;;;;;;;;;5085841;28;20207;-53
2022/03/23 09:49:53;;;;;;;18.00;11.60;;;;;;;;;;5089519;28;20232;-53
2022/03/23 09:52:19;;;;;;;16.13;13.03;;;;;;;;;;5089902;28;20183;-53
2022/03/23 09:54:45;;;;;;;19.67;12.20;;;;;;;;;;5090573;28;20711;-54
2022/03/23 09:57:13;;;;;;;17.97;11.20;;;;;;;;;;5090327;28;20200;-54
2022/03/23 09:59:39;;;;;;;13.07;10.90;;;;;;;;;;5089902;28;20696;-56
2022/03/23 10:02:05;;;;;;;19.80;12.37;;;;;;;;;;5088743;28;20168;-53
2022/03/23 10:04:49;;;;;;;14.90;11.40;;;;;;;;;;5083965;28;20187;-53
2022/03/23 10:07:36;;;;;;;13.90;10.90;;;;;;;;;;5085414;28;20215;-53
2022/03/23 10:10:15;;;;;;;15.13;11.67;;;;;;;;;;5084656;28;20690;-53
2022/03/23 10:13:00;;;;;;;16.67;10.67;;;;;;;;;;5085476;28;20200;-54
2022/03/23 10:15:44;;;;;;;15.40;11.47;;;;;;;;;;5084576;28;20207;-53
2022/03/23 10:18:29;;;;;;;13.30;10.83;;;;;;;;;;5098916;28;20183;-54
2022/03/23 10:20:55;;;;;;;18.10;10.87;;;;;;;;;;5092657;28;20636;-54
2022/03/23 10:23:21;;;;;;;14.57;10.63;;;;;;;;;;5077683;28;20574;-53
2022/03/23 10:25:49;;;;;;;16.87;10.27;;;;;;;;;;5067582;28;20179;-54
2022/03/23 10:28:15;;;;;;;14.83;11.30;;;;;;;;;;5090004;28;20186;-55
2022/03/23 10:30:43;;;;;;;16.10;12.30;;;;;;;;;;5081682;28;20180;-53
2022/03/23 10:33:24;;;;;;;14.67;11.63;;;;;;;;;;5083123;28;20326;-54
2022/03/23 10:35:51;;;;;;;14.47;11.67;;;;;;;;;;5067466;28;20581;-54
2022/03/23 10:38:19;;;;;;;14.83;10.97;;;;;;;;;;5087073;28;20180;-56
2022/03/23 10:40:45;;;;;;;14.03;10.70;;;;;;;;;;5063677;28;20807;-55
2022/03/23 10:43:13;;;;;;;12.37;11.07;;;;;;;;;;5087879;28;20541;-53
2022/03/23 10:45:39;;;;;;;12.83;10.73;;;;;;;;;;5088176;28;20179;-53
2022/03/23 10:48:23;;;;;;;14.47;11.87;;;;;;;;;;5066941;28;20228;-54
2022/03/23 10:50:54;;;;;;;17.23;11.50;;;;;;;;;;5077487;28;20187;-54
2022/03/23 10:53:34;;;;;;;15.47;12.03;;;;;;;;;;5088256;28;20198;-55
2022/03/23 10:56:01;;;;;;;16.43;11.80;;;;;;;;;;5077665;28;20558;-55
2022/03/23 10:58:27;;;;;;;15.43;11.37;;;;;;;;;;5070294;28;20686;-53
2022/03/23 11:00:55;;;;;;;14.77;13.10;;;;;;;;;;5086535;28;20184;-54
2022/03/23 11:03:34;;;;;;;15.27;12.33;;;;;;;;;;5085711;28;20329;-54
2022/03/23 11:06:00;;;;;;;15.03;11.33;;;;;;;;;;5095943;28;20190;-55
2022/03/23 11:08:26;;;;;;;16.07;12.27;;;;;;;;;;5102019;28;20186;-54
2022/03/23 11:16:36;;;;;;;16.00;12.23;;;;;;;;;;5084720;28;20244;-53
2022/03/23 11:19:13;;;;;;;12.93;10.93;;;;;;;;;;5087874;28;20536;-53
2022/03/23 11:21:58;;;;;;;13.37;11.43;;;;;;;;;;5083994;28;20206;-53
2022/03/23 11:24:25;;;;;;;14.70;11.43;;;;;;;;;;5093809;28;20636;-53
2022/03/23 11:26:52;;;;;;;14.63;11.93;;;;;;;;;;5074102;28;20559;-53
2022/03/23 11:29:22;;;;;;;13.33;11.37;;;;;;;;;;5068916;28;20713;-54
2022/03/23 11:31:48;;;;;;;15.00;11.90;;;;;;;;;;5062962;28;20237;-55
2022/03/23 11:34:18;;;;;;;14.30;12.40;;;;;;;;;;5083693;28;20207;-55
2022/03/23 11:36:46;;;;;;;13.03;11.43;;;;;;;;;;5060113;28;20257;-55
2022/03/23 11:39:12;;;;;;;13.00;11.60;;;;;;;;;;5077641;28;20341;-54
2022/03/23 11:41:41;;;;;;;16.73;13.07;;;;;;;;;;5080798;28;20183;-55
2022/03/23 11:44:07;;;;;;;14.63;12.67;;;;;;;;;;5078315;28;20180;-54
2022/03/23 11:46:33;;;;;;;15.57;13.43;;;;;;;;;;5067347;28;20187;-54
2022/03/23 11:49:08;;;;;;;16.93;13.30;;;;;;;;;;5082108;28;20188;-53
2022/03/23 11:51:48;;;;;;;17.10;13.87;;;;;;;;;;5083615;28;20184;-53
2022/03/23 11:54:20;;;;;;;17.17;13.33;;;;;;;;;;5072514;28;20192;-52
2022/03/23 11:56:57;;;;;;;20.87;13.23;;;;;;;;;;5063647;28;20264;-55
2022/03/23 11:59:23;;;;;;;15.60;13.87;;;;;;;;;;5079474;28;20242;-52
2022/03/23 12:01:50;;;;;;;18.43;12.63;;;;;;;;;;5057748;28;20177;-53
2022/03/23 12:04:21;;;;;;;15.33;13.00;;;;;;;;;;5084192;28;20689;-53
2022/03/23 12:06:47;;;;;;;18.03;14.67;;;;;;;;;;5078580;28;20195;-54
2022/03/23 12:09:33;;;;;;;16.47;13.27;;;;;;;;;;5078398;28;20239;-53
2022/03/23 12:12:00;;;;;;;17.37;13.43;;;;;;;;;;5069854;28;20271;-52
2022/03/23 12:14:36;;;;;;;17.63;13.40;;;;;;;;;;5001401;28;1457601;-54
2022/03/23 12:17:07;;;;;;;17.03;13.63;;;;;;;;;;5059791;28;20645;-53
2022/03/23 12:19:52;;;;;;;17.27;13.00;;;;;;;;;;5080368;28;20225;-53
2022/03/23 12:22:33;;;;;;;15.37;12.70;;;;;;;;;;5077006;28;20271;-53
2022/03/23 12:24:59;;;;;;;14.93;12.83;;;;;;;;;;5083241;28;20179;-53
2022/03/23 12:27:32;;;;;;;14.40;13.00;;;;;;;;;;5064632;28;20176;-52
2022/03/23 12:29:59;;;;;;;15.63;12.70;;;;;;;;;;5079118;28;20229;-53
2022/03/23 12:32:36;;;;;;;15.00;12.60;;;;;;;;;;5063437;28;20187;-54
2022/03/23 12:35:02;;;;;;;13.67;11.33;;;;;;;;;;5076548;28;20791;-55
2022/03/23 12:37:36;;;;;;;15.73;12.03;;;;;;;;;;5063788;28;20216;-53
2022/03/23 12:40:15;;;;;;;13.97;12.43;;;;;;;;;;5079200;28;20196;-53
2022/03/23 12:42:45;;;;;;;16.67;12.70;;;;;;;;;;5083462;28;20237;-53
2022/03/23 12:45:16;;;;;;;15.73;11.80;;;;;;;;;;5071688;28;20563;-53
2022/03/23 12:47:52;;;;;;;14.20;11.70;;;;;;;;;;5078766;28;20485;-55
2022/03/23 12:58:46;;;;;;;14.37;12.00;;;;;;;;;;5083514;28;20314;-53
2022/03/23 13:01:17;;;;;;;15.07;13.47;;;;;;;;;;5083328;28;20176;-52
2022/03/23 13:03:47;;;;;;;13.23;11.83;;;;;;;;;;5065227;28;20209;-54
2022/03/23 13:06:13;;;;;;;15.60;11.87;;;;;;;;;;5056655;28;20255;-53
2022/03/23 13:08:50;;;;;;;12.93;11.20;;;;;;;;;;5078117;28;20188;-54
2022/03/23 13:11:23;;;;;;;13.30;11.33;;;;;;;;;;5063277;28;20164;-54
2022/03/23 13:13:51;;;;;;;14.40;11.37;;;;;;;;;;5084562;28;20223;-53
2022/03/23 13:16:19;;;;;;;13.33;11.93;;;;;;;;;;5082101;28;20645;-54
2022/03/23 13:18:46;;;;;;;13.63;11.67;;;;;;;;;;5084613;28;20216;-52
2022/03/23 13:21:15;;;;;;;14.13;12.73;;;;;;;;;;5076630;28;20188;-52
2022/03/23 13:23:42;;;;;;;11.73;10.50;;;;;;;;;;5085772;28;20188;-52
2022/03/23 13:26:16;;;;;;;12.87;11.50;;;;;;;;;;5050410;28;20183;-53
2022/03/23 13:28:43;;;;;;;12.80;11.50;;;;;;;;;;5091161;28;20180;-53
2022/03/23 13:31:11;;;;;;;12.07;10.87;;;;;;;;;;5091026;28;20206;-55
2022/03/23 13:33:47;;;;;;;13.10;11.67;;;;;;;;;;5071172;28;20244;-52
2022/03/23 13:36:15;;;;;;;14.13;11.53;;;;;;;;;;5071954;28;20247;-52
2022/03/23 13:38:45;;;;;;;15.03;12.20;;;;;;;;;;5084548;28;20180;-52
2022/03/23 13:43:58;;;;;;;17.20;13.03;;;;;;;;;;5087944;28;20246;-53
2022/03/23 13:46:25;;;;;;;14.20;12.70;;;;;;;;;;5067675;28;20192;-53
2022/03/23 13:49:02;;;;;;;14.70;13.10;;;;;;;;;;5072714;28;20183;-53
2022/03/23 13:51:32;;;;;;;14.60;13.07;;;;;;;;;;5064055;28;20188;-54
2022/03/23 13:53:59;;;;;;;13.60;12.23;;;;;;;;;;5087045;28;20216;-55
2022/03/23 13:56:26;;;;;;;14.10;11.97;;;;;;;;;;5070364;28;20643;-53
2022/03/23 13:58:53;;;;;;;14.10;12.60;;;;;;;;;;5079383;28;20203;-53
2022/03/23 14:01:19;;;;;;;16.53;13.43;;;;;;;;;;5088798;28;20179;-56
2022/03/23 14:03:50;;;;;;;16.53;14.03;;;;;;;;;;5070883;28;20212;-55
2022/03/23 14:06:18;;;;;;;14.37;12.87;;;;;;;;;;5087271;28;20214;-56
2022/03/23 14:08:54;;;;;;;14.53;12.67;;;;;;;;;;5088763;28;20229;-54
2022/03/23 14:11:47;;;;;;;14.90;12.83;;;;;;;;;;5061278;28;20359;-55
2022/03/23 14:14:08;;;;;;;13.77;12.20;;;;;;;;;;5087818;28;20311;-55
2022/03/23 14:16:34;;;;;;;17.33;12.67;;;;;;;;;;5086208;28;20184;-54
2022/03/23 14:19:02;;;;;;;15.70;13.87;;;;;;;;;;5070681;28;20521;-54
2022/03/23 14:21:30;;;;;;;15.80;13.33;;;;;;;;;;5068841;28;20672;-55
2022/03/23 14:23:56;;;;;;;14.80;13.30;;;;;;;;;;5069512;28;20528;-53
2022/03/23 14:26:23;;;;;;;13.37;11.87;;;;;;;;;;5070052;28;20597;-54
2022/03/23 14:28:49;;;;;;;20.83;14.07;;;;;;;;;;5084089;28;20670;-55
2022/03/23 14:31:21;;;;;;;14.43;12.53;;;;;;;;;;5071534;28;20274;-54
2022/03/23 14:33:54;;;;;;;15.17;12.60;;;;;;;;;;5090773;28;20697;-54
2022/03/23 14:36:28;;;;;;;15.40;12.40;;;;;;;;;;5050976;28;20587;-57
2022/03/23 14:38:57;;;;;;;15.23;13.63;;;;;;;;;;5086258;28;20184;-55
2022/03/23 14:41:25;;;;;;;15.73;14.13;;;;;;;;;;5088648;28;20182;-54
2022/03/23 14:43:51;;;;;;;15.80;14.10;;;;;;;;;;5069134;28;20233;-55
2022/03/23 14:46:28;;;;;;;18.70;14.60;;;;;;;;;;5089076;28;20191;-54
2022/03/23 14:49:04;;;;;;;14.83;13.33;;;;;;;;;;5065836;28;20184;-56
2022/03/23 14:51:30;;;;;;;16.93;13.97;;;;;;;;;;5086972;28;20232;-55
2022/03/23 14:53:57;;;;;;;17.83;14.10;;;;;;;;;;5086187;28;20234;-53
2022/03/23 14:56:23;;;;;;;14.87;12.60;;;;;;;;;;5079662;28;20182;-53
2022/03/23 14:58:50;;;;;;;17.10;14.23;;;;;;;;;;5069366;28;20202;-54
2022/03/23 15:01:16;;;;;;;18.07;15.70;;;;;;;;;;5072123;28;20221;-55
2022/03/23 15:03:42;;;;;;;16.80;13.93;;;;;;;;;;5087189;28;20191;-53
2022/03/23 15:14:26;;;;;;;15.47;13.47;;;;;;;;;;5067487;28;20239;-54
2022/03/23 15:16:52;;;;;;;16.30;14.60;;;;;;;;;;5081600;28;21060;-54